Meath Environmental Platform

Observations for Trim Market St

Time AQI Temp °C Hum % Pres Pa CO μg/m³ H₂S μg/m³ NO μg/m³ NO₂ μg/m³ O₃ μg/m³ SO₂ μg/m³ PM1 μg/m³ PM2.5 μg/m³ PM10 μg/m³
Sunday 16 August 2026
06:46 2 14.7 71 55,868 0.3 0 3.23 7.03 47.96 0 3.56 4.94 7.53
06:44 2 14.6 71 55,910 0.3 0 2.97 6.09 46.94 0 3.56 4.94 8.77
06:43 2 14.6 71 55,921 0.29 0 2.56 6.24 50.94 0 2.14 3.97 6.29
06:42 2 14.6 71 55,922 0.29 0 2.26 9.98 42.09 0 3.56 4.93 8.15
06:41 2 14.6 71 55,938 0.3 0 2.03 5.95 47.21 0 2.14 3.97 6.29
06:40 2 14.6 71 55,941 0.3 0 2.05 6.75 46.67 0 2.14 3 5.05
06:39 2 14.6 71 55,938 0.29 0 2.16 5.46 47.53 0 2.85 4.45 7.53
06:38 2 14.6 71 55,926 0.3 0 2.64 5.94 47.32 0 2.14 3 6.29
06:35 2 14.6 71 55,891 0.29 0 3.13 6.23 47.06 0 3.56 4.45 8.77
06:24 2 14.6 71 55,924 0.29 0 2.93 6.73 49.89 0 2.85 3.97 7.53
06:23 2 14.6 71 55,923 0.29 0 2.62 6.89 46.55 0 3.56 4.46 7.53
06:21 2 14.6 71 55,931 0.29 0 2.95 6.89 46.36 0 2.85 3.97 6.29
06:20 2 14.6 71 55,942 0.3 0 3.03 7.53 43.89 0 2.85 4.46 6.91
06:16 2 14.5 71 55,917 0.29 0 2.37 6.75 47.38 0 2.14 3.98 6.29
06:15 2 14.6 71 55,925 0.29 0 2.32 8.49 44.77 0 1.43 2.53 4.42
06:14 2 14.6 71 55,937 0.29 0 2.68 7 45.88 0 2.85 3.98 6.91
06:13 2 14.6 71 55,950 0.29 0 2.87 7.65 45.64 0 2.85 3.98 6.91
06:12 2 14.5 71 55,953 0.3 0 3.01 7.52 44.9 0 2.85 3.98 6.29
06:11 2 14.5 71 55,964 0.29 0 2.97 7.03 45.92 0 2.85 3.98 6.29
06:10 2 14.5 71 55,968 0.29 0 3.03 6.13 47.87 0 3.56 4.47 6.91